sensor_id;sensor_type;location;lat;lon;timestamp;P1;durP1;ratioP1;P2;durP2;ratioP2
33862;SDS011;20158;51.436;-2.742;2023-03-14T00:02:08;1.55;;;0.60;;
33862;SDS011;20158;51.436;-2.742;2023-03-14T00:04:35;2.42;;;0.70;;
33862;SDS011;20158;51.436;-2.742;2023-03-14T00:07:01;1.38;;;0.70;;
33862;SDS011;20158;51.436;-2.742;2023-03-14T00:09:31;3.55;;;0.73;;
33862;SDS011;20158;51.436;-2.742;2023-03-14T00:11:56;4.25;;;1.10;;
33862;SDS011;20158;51.436;-2.742;2023-03-14T00:14:23;4.07;;;2.05;;
33862;SDS011;20158;51.436;-2.742;2023-03-14T00:16:49;3.78;;;1.20;;
33862;SDS011;20158;51.436;-2.742;2023-03-14T00:19:16;4.70;;;2.20;;
33862;SDS011;20158;51.436;-2.742;2023-03-14T00:21:42;4.38;;;1.02;;
33862;SDS011;20158;51.436;-2.742;2023-03-14T00:24:09;3.83;;;0.98;;
33862;SDS011;20158;51.436;-2.742;2023-03-14T00:26:35;3.22;;;0.77;;
33862;SDS011;20158;51.436;-2.742;2023-03-14T00:29:01;2.90;;;1.60;;
33862;SDS011;20158;51.436;-2.742;2023-03-14T00:31:27;1.92;;;0.90;;
33862;SDS011;20158;51.436;-2.742;2023-03-14T00:33:53;3.67;;;1.25;;
33862;SDS011;20158;51.436;-2.742;2023-03-14T00:36:23;1.73;;;0.95;;
33862;SDS011;20158;51.436;-2.742;2023-03-14T00:38:51;1.83;;;1.02;;
33862;SDS011;20158;51.436;-2.742;2023-03-14T00:41:18;6.03;;;1.67;;
33862;SDS011;20158;51.436;-2.742;2023-03-14T00:43:46;3.45;;;1.10;;
33862;SDS011;20158;51.436;-2.742;2023-03-14T00:46:12;4.63;;;0.98;;
33862;SDS011;20158;51.436;-2.742;2023-03-14T00:48:38;1.65;;;1.10;;
33862;SDS011;20158;51.436;-2.742;2023-03-14T00:51:05;2.17;;;0.82;;
33862;SDS011;20158;51.436;-2.742;2023-03-14T00:53:36;3.97;;;0.88;;
33862;SDS011;20158;51.436;-2.742;2023-03-14T00:56:04;3.67;;;1.00;;
33862;SDS011;20158;51.436;-2.742;2023-03-14T00:58:31;3.05;;;0.80;;
33862;SDS011;20158;51.436;-2.742;2023-03-14T01:00:58;4.15;;;1.42;;
33862;SDS011;20158;51.436;-2.742;2023-03-14T01:03:24;5.55;;;1.27;;
33862;SDS011;20158;51.436;-2.742;2023-03-14T01:05:50;4.40;;;1.17;;
33862;SDS011;20158;51.436;-2.742;2023-03-14T01:08:16;3.78;;;2.55;;
33862;SDS011;20158;51.436;-2.742;2023-03-14T01:10:42;1.85;;;0.80;;
33862;SDS011;20158;51.436;-2.742;2023-03-14T01:13:09;2.90;;;0.82;;
33862;SDS011;20158;51.436;-2.742;2023-03-14T01:15:36;4.07;;;1.73;;
33862;SDS011;20158;51.436;-2.742;2023-03-14T01:18:02;2.90;;;1.23;;
33862;SDS011;20158;51.436;-2.742;2023-03-14T01:20:29;2.05;;;0.93;;
33862;SDS011;20158;51.436;-2.742;2023-03-14T01:22:55;4.70;;;1.00;;
33862;SDS011;20158;51.436;-2.742;2023-03-14T01:25:21;4.57;;;1.42;;
33862;SDS011;20158;51.436;-2.742;2023-03-14T01:27:47;2.25;;;0.80;;
33862;SDS011;20158;51.436;-2.742;2023-03-14T01:30:13;5.15;;;1.15;;
33862;SDS011;20158;51.436;-2.742;2023-03-14T01:32:39;4.60;;;1.25;;
33862;SDS011;20158;51.436;-2.742;2023-03-14T01:35:06;3.47;;;0.90;;
33862;SDS011;20158;51.436;-2.742;2023-03-14T01:37:34;3.80;;;1.23;;
33862;SDS011;20158;51.436;-2.742;2023-03-14T01:40:01;10.77;;;2.35;;
33862;SDS011;20158;51.436;-2.742;2023-03-14T01:42:29;3.28;;;1.17;;
33862;SDS011;20158;51.436;-2.742;2023-03-14T01:44:56;2.97;;;1.48;;
33862;SDS011;20158;51.436;-2.742;2023-03-14T01:47:24;5.30;;;1.10;;
33862;SDS011;20158;51.436;-2.742;2023-03-14T01:49:55;3.22;;;0.80;;
33862;SDS011;20158;51.436;-2.742;2023-03-14T01:52:35;4.22;;;0.88;;
33862;SDS011;20158;51.436;-2.742;2023-03-14T01:55:12;6.28;;;2.53;;
33862;SDS011;20158;51.436;-2.742;2023-03-14T01:57:46;5.28;;;1.00;;
33862;SDS011;20158;51.436;-2.742;2023-03-14T02:00:16;5.47;;;2.38;;
33862;SDS011;20158;51.436;-2.742;2023-03-14T02:02:47;3.45;;;1.15;;
33862;SDS011;20158;51.436;-2.742;2023-03-14T02:05:24;5.57;;;1.20;;
33862;SDS011;20158;51.436;-2.742;2023-03-14T02:08:14;5.53;;;1.67;;
33862;SDS011;20158;51.436;-2.742;2023-03-14T02:10:48;3.30;;;1.25;;
33862;SDS011;20158;51.436;-2.742;2023-03-14T02:13:17;4.85;;;1.20;;
33862;SDS011;20158;51.436;-2.742;2023-03-14T02:15:45;5.03;;;1.88;;
33862;SDS011;20158;51.436;-2.742;2023-03-14T02:18:20;6.78;;;1.65;;
33862;SDS011;20158;51.436;-2.742;2023-03-14T02:23:47;4.93;;;1.10;;
33862;SDS011;20158;51.436;-2.742;2023-03-14T02:27:12;3.97;;;1.23;;
33862;SDS011;20158;51.436;-2.742;2023-03-14T02:29:30;5.32;;;1.30;;
33862;SDS011;20158;51.436;-2.742;2023-03-14T02:31:59;3.80;;;1.00;;
33862;SDS011;20158;51.436;-2.742;2023-03-14T02:34:26;3.58;;;1.13;;
33862;SDS011;20158;51.436;-2.742;2023-03-14T02:36:52;5.43;;;1.40;;
33862;SDS011;20158;51.436;-2.742;2023-03-14T02:39:27;3.25;;;1.20;;
33862;SDS011;20158;51.436;-2.742;2023-03-14T02:42:00;4.18;;;1.45;;
33862;SDS011;20158;51.436;-2.742;2023-03-14T02:44:26;5.57;;;2.15;;
33862;SDS011;20158;51.436;-2.742;2023-03-14T02:46:52;4.22;;;1.00;;
33862;SDS011;20158;51.436;-2.742;2023-03-14T02:49:20;5.32;;;1.38;;
33862;SDS011;20158;51.436;-2.742;2023-03-14T02:51:46;5.03;;;1.20;;
33862;SDS011;20158;51.436;-2.742;2023-03-14T02:54:14;4.88;;;1.15;;
33862;SDS011;20158;51.436;-2.742;2023-03-14T02:56:41;5.53;;;1.25;;
33862;SDS011;20158;51.436;-2.742;2023-03-14T02:59:10;7.43;;;2.30;;
33862;SDS011;20158;51.436;-2.742;2023-03-14T03:02:02;5.07;;;1.48;;
33862;SDS011;20158;51.436;-2.742;2023-03-14T03:04:30;5.78;;;1.42;;
33862;SDS011;20158;51.436;-2.742;2023-03-14T03:06:56;8.10;;;1.55;;
33862;SDS011;20158;51.436;-2.742;2023-03-14T03:09:22;6.38;;;1.20;;
33862;SDS011;20158;51.436;-2.742;2023-03-14T03:11:50;4.80;;;1.10;;
33862;SDS011;20158;51.436;-2.742;2023-03-14T03:14:20;6.03;;;1.30;;
33862;SDS011;20158;51.436;-2.742;2023-03-14T03:16:46;5.03;;;1.90;;
33862;SDS011;20158;51.436;-2.742;2023-03-14T03:19:13;5.47;;;1.70;;
33862;SDS011;20158;51.436;-2.742;2023-03-14T03:21:40;2.60;;;1.00;;
33862;SDS011;20158;51.436;-2.742;2023-03-14T03:24:06;3.35;;;0.90;;
33862;SDS011;20158;51.436;-2.742;2023-03-14T03:26:36;5.25;;;1.48;;
33862;SDS011;20158;51.436;-2.742;2023-03-14T03:29:04;5.43;;;1.33;;
33862;SDS011;20158;51.436;-2.742;2023-03-14T03:31:30;5.78;;;1.48;;
33862;SDS011;20158;51.436;-2.742;2023-03-14T03:33:56;4.85;;;1.60;;
33862;SDS011;20158;51.436;-2.742;2023-03-14T03:36:24;5.20;;;1.25;;
33862;SDS011;20158;51.436;-2.742;2023-03-14T03:38:51;4.72;;;1.30;;
33862;SDS011;20158;51.436;-2.742;2023-03-14T03:41:17;2.72;;;1.13;;
33862;SDS011;20158;51.436;-2.742;2023-03-14T03:43:46;3.22;;;0.80;;
33862;SDS011;20158;51.436;-2.742;2023-03-14T03:46:15;4.22;;;1.00;;
33862;SDS011;20158;51.436;-2.742;2023-03-14T03:48:41;3.92;;;1.27;;
33862;SDS011;20158;51.436;-2.742;2023-03-14T03:51:10;3.50;;;1.25;;
33862;SDS011;20158;51.436;-2.742;2023-03-14T03:53:38;3.92;;;1.10;;
33862;SDS011;20158;51.436;-2.742;2023-03-14T03:56:09;4.85;;;1.17;;
33862;SDS011;20158;51.436;-2.742;2023-03-14T03:58:35;3.28;;;1.45;;
33862;SDS011;20158;51.436;-2.742;2023-03-14T04:01:02;8.32;;;1.80;;
33862;SDS011;20158;51.436;-2.742;2023-03-14T04:03:29;8.25;;;1.58;;
33862;SDS011;20158;51.436;-2.742;2023-03-14T04:06:03;3.88;;;1.00;;
33862;SDS011;20158;51.436;-2.742;2023-03-14T04:08:33;3.70;;;1.33;;
33862;SDS011;20158;51.436;-2.742;2023-03-14T04:11:00;2.78;;;1.25;;
33862;SDS011;20158;51.436;-2.742;2023-03-14T04:13:44;3.13;;;1.35;;
33862;SDS011;20158;51.436;-2.742;2023-03-14T04:16:15;4.97;;;1.27;;
33862;SDS011;20158;51.436;-2.742;2023-03-14T04:18:43;3.88;;;0.77;;
33862;SDS011;20158;51.436;-2.742;2023-03-14T04:21:09;3.13;;;1.00;;
33862;SDS011;20158;51.436;-2.742;2023-03-14T04:23:43;3.13;;;1.35;;
33862;SDS011;20158;51.436;-2.742;2023-03-14T04:26:10;3.08;;;1.17;;
33862;SDS011;20158;51.436;-2.742;2023-03-14T04:28:36;3.13;;;1.08;;
33862;SDS011;20158;51.436;-2.742;2023-03-14T04:31:07;6.22;;;1.35;;
33862;SDS011;20158;51.436;-2.742;2023-03-14T04:33:34;3.42;;;1.33;;
33862;SDS011;20158;51.436;-2.742;2023-03-14T04:36:02;8.30;;;2.10;;
33862;SDS011;20158;51.436;-2.742;2023-03-14T04:38:30;4.78;;;1.52;;
33862;SDS011;20158;51.436;-2.742;2023-03-14T04:40:56;4.05;;;1.52;;
33862;SDS011;20158;51.436;-2.742;2023-03-14T04:43:28;3.13;;;1.10;;
33862;SDS011;20158;51.436;-2.742;2023-03-14T04:46:02;3.40;;;1.33;;
33862;SDS011;20158;51.436;-2.742;2023-03-14T04:48:28;4.78;;;1.25;;
33862;SDS011;20158;51.436;-2.742;2023-03-14T04:50:54;4.38;;;1.33;;
33862;SDS011;20158;51.436;-2.742;2023-03-14T04:53:21;3.50;;;1.20;;
33862;SDS011;20158;51.436;-2.742;2023-03-14T04:55:54;5.25;;;1.40;;
33862;SDS011;20158;51.436;-2.742;2023-03-14T04:58:23;3.58;;;1.50;;
33862;SDS011;20158;51.436;-2.742;2023-03-14T05:00:50;5.47;;;1.10;;
33862;SDS011;20158;51.436;-2.742;2023-03-14T05:03:38;5.13;;;2.10;;
33862;SDS011;20158;51.436;-2.742;2023-03-14T05:06:20;7.90;;;1.50;;
33862;SDS011;20158;51.436;-2.742;2023-03-14T05:08:49;4.28;;;1.23;;
33862;SDS011;20158;51.436;-2.742;2023-03-14T05:11:38;5.28;;;1.20;;
33862;SDS011;20158;51.436;-2.742;2023-03-14T05:14:26;6.70;;;1.65;;
33862;SDS011;20158;51.436;-2.742;2023-03-14T05:17:20;6.53;;;2.25;;
33862;SDS011;20158;51.436;-2.742;2023-03-14T05:20:10;5.57;;;1.30;;
33862;SDS011;20158;51.436;-2.742;2023-03-14T05:23:02;4.47;;;1.33;;
33862;SDS011;20158;51.436;-2.742;2023-03-14T05:25:57;6.82;;;1.52;;
33862;SDS011;20158;51.436;-2.742;2023-03-14T05:28:32;5.03;;;1.00;;
33862;SDS011;20158;51.436;-2.742;2023-03-14T05:31:18;4.07;;;1.88;;
33862;SDS011;20158;51.436;-2.742;2023-03-14T05:33:50;4.72;;;2.13;;
33862;SDS011;20158;51.436;-2.742;2023-03-14T05:36:37;4.75;;;1.23;;
33862;SDS011;20158;51.436;-2.742;2023-03-14T05:39:33;3.47;;;1.35;;
33862;SDS011;20158;51.436;-2.742;2023-03-14T05:42:28;4.90;;;1.13;;
33862;SDS011;20158;51.436;-2.742;2023-03-14T05:45:14;5.03;;;1.27;;
33862;SDS011;20158;51.436;-2.742;2023-03-14T05:48:05;4.10;;;1.20;;
33862;SDS011;20158;51.436;-2.742;2023-03-14T05:50:54;2.83;;;1.10;;
33862;SDS011;20158;51.436;-2.742;2023-03-14T05:53:56;4.82;;;1.30;;
33862;SDS011;20158;51.436;-2.742;2023-03-14T05:56:32;7.43;;;1.63;;
33862;SDS011;20158;51.436;-2.742;2023-03-14T05:59:04;6.88;;;1.88;;
33862;SDS011;20158;51.436;-2.742;2023-03-14T06:01:41;8.75;;;1.33;;
33862;SDS011;20158;51.436;-2.742;2023-03-14T06:04:13;6.05;;;1.70;;
33862;SDS011;20158;51.436;-2.742;2023-03-14T06:06:39;3.00;;;2.10;;
33862;SDS011;20158;51.436;-2.742;2023-03-14T06:09:07;6.25;;;1.25;;
33862;SDS011;20158;51.436;-2.742;2023-03-14T06:11:36;5.53;;;1.27;;
33862;SDS011;20158;51.436;-2.742;2023-03-14T06:14:04;3.65;;;1.52;;
33862;SDS011;20158;51.436;-2.742;2023-03-14T06:16:30;2.78;;;1.30;;
33862;SDS011;20158;51.436;-2.742;2023-03-14T06:18:58;6.78;;;1.27;;
33862;SDS011;20158;51.436;-2.742;2023-03-14T06:21:25;4.57;;;1.27;;
33862;SDS011;20158;51.436;-2.742;2023-03-14T06:23:51;6.55;;;1.55;;
33862;SDS011;20158;51.436;-2.742;2023-03-14T06:26:20;4.22;;;1.08;;
33862;SDS011;20158;51.436;-2.742;2023-03-14T06:28:48;4.30;;;1.00;;
33862;SDS011;20158;51.436;-2.742;2023-03-14T06:31:14;4.03;;;1.30;;
33862;SDS011;20158;51.436;-2.742;2023-03-14T06:33:50;5.93;;;1.40;;
33862;SDS011;20158;51.436;-2.742;2023-03-14T06:36:17;6.68;;;1.50;;
33862;SDS011;20158;51.436;-2.742;2023-03-14T06:38:45;3.70;;;1.00;;
33862;SDS011;20158;51.436;-2.742;2023-03-14T06:41:12;5.35;;;1.40;;
33862;SDS011;20158;51.436;-2.742;2023-03-14T06:43:40;4.60;;;1.48;;
33862;SDS011;20158;51.436;-2.742;2023-03-14T06:46:07;5.53;;;1.10;;
33862;SDS011;20158;51.436;-2.742;2023-03-14T06:48:37;5.80;;;1.77;;
33862;SDS011;20158;51.436;-2.742;2023-03-14T06:51:05;7.40;;;2.40;;
33862;SDS011;20158;51.436;-2.742;2023-03-14T06:53:32;5.07;;;1.60;;
33862;SDS011;20158;51.436;-2.742;2023-03-14T06:56:00;11.77;;;2.05;;
33862;SDS011;20158;51.436;-2.742;2023-03-14T06:58:28;5.20;;;1.33;;
33862;SDS011;20158;51.436;-2.742;2023-03-14T07:00:54;3.60;;;1.35;;
33862;SDS011;20158;51.436;-2.742;2023-03-14T07:03:24;4.18;;;1.17;;
33862;SDS011;20158;51.436;-2.742;2023-03-14T07:05:53;11.85;;;1.80;;
33862;SDS011;20158;51.436;-2.742;2023-03-14T07:08:19;5.55;;;1.40;;
33862;SDS011;20158;51.436;-2.742;2023-03-14T07:10:45;6.03;;;1.88;;
33862;SDS011;20158;51.436;-2.742;2023-03-14T07:13:11;7.55;;;1.85;;
33862;SDS011;20158;51.436;-2.742;2023-03-14T07:15:48;4.88;;;2.05;;
33862;SDS011;20158;51.436;-2.742;2023-03-14T07:18:14;7.00;;;1.80;;
33862;SDS011;20158;51.436;-2.742;2023-03-14T07:20:40;5.68;;;2.10;;
33862;SDS011;20158;51.436;-2.742;2023-03-14T07:23:07;12.07;;;2.00;;
33862;SDS011;20158;51.436;-2.742;2023-03-14T07:25:41;4.32;;;2.55;;
33862;SDS011;20158;51.436;-2.742;2023-03-14T07:28:08;2.88;;;1.27;;
33862;SDS011;20158;51.436;-2.742;2023-03-14T07:30:35;5.70;;;2.00;;
33862;SDS011;20158;51.436;-2.742;2023-03-14T07:33:05;4.93;;;1.30;;
33862;SDS011;20158;51.436;-2.742;2023-03-14T07:35:32;5.70;;;1.13;;
33862;SDS011;20158;51.436;-2.742;2023-03-14T07:37:58;5.95;;;1.33;;
33862;SDS011;20158;51.436;-2.742;2023-03-14T07:40:31;4.57;;;1.13;;
33862;SDS011;20158;51.436;-2.742;2023-03-14T07:42:57;5.72;;;1.58;;
33862;SDS011;20158;51.436;-2.742;2023-03-14T07:45:27;5.95;;;1.10;;
33862;SDS011;20158;51.436;-2.742;2023-03-14T07:47:53;5.95;;;1.75;;
33862;SDS011;20158;51.436;-2.742;2023-03-14T07:50:23;4.47;;;1.10;;
33862;SDS011;20158;51.436;-2.742;2023-03-14T07:52:53;4.22;;;1.52;;
33862;SDS011;20158;51.436;-2.742;2023-03-14T07:55:19;1.60;;;0.85;;
33862;SDS011;20158;51.436;-2.742;2023-03-14T07:57:45;4.95;;;0.70;;
33862;SDS011;20158;51.436;-2.742;2023-03-14T08:00:14;2.47;;;1.00;;
33862;SDS011;20158;51.436;-2.742;2023-03-14T08:02:40;2.75;;;0.90;;
33862;SDS011;20158;51.436;-2.742;2023-03-14T08:05:06;4.47;;;1.20;;
33862;SDS011;20158;51.436;-2.742;2023-03-14T08:07:33;4.65;;;1.58;;
33862;SDS011;20158;51.436;-2.742;2023-03-14T08:10:00;3.70;;;1.05;;
33862;SDS011;20158;51.436;-2.742;2023-03-14T08:12:26;5.95;;;1.20;;
33862;SDS011;20158;51.436;-2.742;2023-03-14T08:14:52;2.10;;;0.90;;
33862;SDS011;20158;51.436;-2.742;2023-03-14T08:17:17;2.95;;;1.25;;
33862;SDS011;20158;51.436;-2.742;2023-03-14T08:19:43;3.42;;;0.90;;
33862;SDS011;20158;51.436;-2.742;2023-03-14T08:22:12;5.93;;;0.95;;
33862;SDS011;20158;51.436;-2.742;2023-03-14T08:24:38;5.93;;;1.17;;
33862;SDS011;20158;51.436;-2.742;2023-03-14T08:27:04;3.38;;;1.13;;
33862;SDS011;20158;51.436;-2.742;2023-03-14T08:29:30;3.63;;;1.27;;
33862;SDS011;20158;51.436;-2.742;2023-03-14T08:31:56;3.83;;;0.93;;
33862;SDS011;20158;51.436;-2.742;2023-03-14T08:34:22;3.05;;;0.82;;
33862;SDS011;20158;51.436;-2.742;2023-03-14T08:36:48;2.80;;;0.90;;
33862;SDS011;20158;51.436;-2.742;2023-03-14T08:39:15;3.75;;;1.08;;
33862;SDS011;20158;51.436;-2.742;2023-03-14T08:41:41;3.25;;;0.98;;
33862;SDS011;20158;51.436;-2.742;2023-03-14T08:44:09;2.00;;;0.70;;
33862;SDS011;20158;51.436;-2.742;2023-03-14T08:46:37;2.75;;;0.70;;
33862;SDS011;20158;51.436;-2.742;2023-03-14T08:49:03;3.28;;;0.85;;
33862;SDS011;20158;51.436;-2.742;2023-03-14T08:51:29;2.63;;;0.70;;
33862;SDS011;20158;51.436;-2.742;2023-03-14T08:53:55;3.70;;;0.98;;
33862;SDS011;20158;51.436;-2.742;2023-03-14T08:56:21;2.00;;;1.20;;
33862;SDS011;20158;51.436;-2.742;2023-03-14T08:58:47;2.22;;;0.80;;
33862;SDS011;20158;51.436;-2.742;2023-03-14T09:01:13;2.58;;;0.60;;
33862;SDS011;20158;51.436;-2.742;2023-03-14T09:03:39;3.40;;;0.80;;
33862;SDS011;20158;51.436;-2.742;2023-03-14T09:06:05;1.40;;;0.75;;
33862;SDS011;20158;51.436;-2.742;2023-03-14T09:08:33;2.42;;;0.60;;
33862;SDS011;20158;51.436;-2.742;2023-03-14T09:10:59;3.10;;;1.00;;
33862;SDS011;20158;51.436;-2.742;2023-03-14T09:13:25;3.30;;;0.77;;
33862;SDS011;20158;51.436;-2.742;2023-03-14T09:15:52;2.25;;;0.60;;
33862;SDS011;20158;51.436;-2.742;2023-03-14T09:18:18;2.17;;;0.63;;
33862;SDS011;20158;51.436;-2.742;2023-03-14T09:20:47;0.80;;;0.60;;
33862;SDS011;20158;51.436;-2.742;2023-03-14T09:23:14;3.50;;;0.70;;
33862;SDS011;20158;51.436;-2.742;2023-03-14T09:25:40;2.35;;;0.82;;
33862;SDS011;20158;51.436;-2.742;2023-03-14T09:28:06;1.52;;;0.60;;
33862;SDS011;20158;51.436;-2.742;2023-03-14T09:30:32;0.93;;;0.57;;
33862;SDS011;20158;51.436;-2.742;2023-03-14T09:32:59;1.95;;;0.60;;
33862;SDS011;20158;51.436;-2.742;2023-03-14T09:35:25;1.45;;;0.52;;
33862;SDS011;20158;51.436;-2.742;2023-03-14T09:37:51;0.93;;;0.70;;
33862;SDS011;20158;51.436;-2.742;2023-03-14T09:40:18;1.60;;;0.70;;
33862;SDS011;20158;51.436;-2.742;2023-03-14T09:42:46;1.27;;;0.77;;
33862;SDS011;20158;51.436;-2.742;2023-03-14T09:45:17;0.85;;;0.65;;
33862;SDS011;20158;51.436;-2.742;2023-03-14T09:47:51;0.75;;;0.70;;
33862;SDS011;20158;51.436;-2.742;2023-03-14T09:50:19;1.35;;;0.65;;
33862;SDS011;20158;51.436;-2.742;2023-03-14T09:52:45;1.17;;;0.65;;
33862;SDS011;20158;51.436;-2.742;2023-03-14T09:55:16;0.93;;;0.40;;
33862;SDS011;20158;51.436;-2.742;2023-03-14T09:57:47;1.60;;;0.60;;
33862;SDS011;20158;51.436;-2.742;2023-03-14T10:02:46;1.35;;;0.65;;
33862;SDS011;20158;51.436;-2.742;2023-03-14T10:05:33;0.65;;;0.47;;
33862;SDS011;20158;51.436;-2.742;2023-03-14T10:07:59;1.58;;;0.50;;
33862;SDS011;20158;51.436;-2.742;2023-03-14T10:10:25;0.90;;;0.45;;
33862;SDS011;20158;51.436;-2.742;2023-03-14T10:12:59;1.35;;;0.60;;
33862;SDS011;20158;51.436;-2.742;2023-03-14T10:15:38;2.92;;;0.90;;
33862;SDS011;20158;51.436;-2.742;2023-03-14T10:18:09;0.98;;;0.40;;
33862;SDS011;20158;51.436;-2.742;2023-03-14T10:25:41;2.03;;;0.40;;
33862;SDS011;20158;51.436;-2.742;2023-03-14T10:28:29;1.40;;;0.60;;
33862;SDS011;20158;51.436;-2.742;2023-03-14T10:31:05;0.47;;;0.40;;
33862;SDS011;20158;51.436;-2.742;2023-03-14T10:33:33;0.95;;;0.73;;
33862;SDS011;20158;51.436;-2.742;2023-03-14T10:38:41;2.42;;;0.47;;
33862;SDS011;20158;51.436;-2.742;2023-03-14T10:41:19;1.50;;;0.40;;
33862;SDS011;20158;51.436;-2.742;2023-03-14T10:43:56;0.47;;;0.47;;
33862;SDS011;20158;51.436;-2.742;2023-03-14T10:46:24;0.50;;;0.40;;
33862;SDS011;20158;51.436;-2.742;2023-03-14T10:49:16;0.30;;;0.30;;
33862;SDS011;20158;51.436;-2.742;2023-03-14T10:51:52;0.85;;;0.40;;
33862;SDS011;20158;51.436;-2.742;2023-03-14T10:54:22;0.30;;;0.30;;
33862;SDS011;20158;51.436;-2.742;2023-03-14T10:56:58;0.70;;;0.30;;
33862;SDS011;20158;51.436;-2.742;2023-03-14T10:59:27;0.45;;;0.40;;
33862;SDS011;20158;51.436;-2.742;2023-03-14T11:07:33;1.60;;;0.30;;
33862;SDS011;20158;51.436;-2.742;2023-03-14T11:15:49;1.55;;;0.32;;
33862;SDS011;20158;51.436;-2.742;2023-03-14T11:21:18;0.70;;;0.30;;
33862;SDS011;20158;51.436;-2.742;2023-03-14T11:26:48;0.65;;;0.28;;
33862;SDS011;20158;51.436;-2.742;2023-03-14T11:32:09;1.15;;;0.60;;
33862;SDS011;20158;51.436;-2.742;2023-03-14T11:34:57;1.17;;;0.40;;
33862;SDS011;20158;51.436;-2.742;2023-03-14T11:40:11;0.82;;;0.35;;
33862;SDS011;20158;51.436;-2.742;2023-03-14T11:43:34;0.52;;;0.30;;
33862;SDS011;20158;51.436;-2.742;2023-03-14T11:45:38;1.50;;;0.50;;
33862;SDS011;20158;51.436;-2.742;2023-03-14T11:50:42;1.23;;;0.50;;
33862;SDS011;20158;51.436;-2.742;2023-03-14T11:53:18;0.50;;;0.35;;
33862;SDS011;20158;51.436;-2.742;2023-03-14T11:56:01;2.65;;;0.93;;
33862;SDS011;20158;51.436;-2.742;2023-03-14T11:58:34;6.97;;;2.38;;
33862;SDS011;20158;51.436;-2.742;2023-03-14T12:01:10;3.87;;;1.63;;
33862;SDS011;20158;51.436;-2.742;2023-03-14T12:06:32;2.30;;;1.00;;
33862;SDS011;20158;51.436;-2.742;2023-03-14T12:09:17;2.83;;;1.00;;
33862;SDS011;20158;51.436;-2.742;2023-03-14T12:11:50;1.13;;;0.70;;
33862;SDS011;20158;51.436;-2.742;2023-03-14T12:14:29;3.25;;;0.75;;
33862;SDS011;20158;51.436;-2.742;2023-03-14T12:17:05;1.27;;;0.70;;
33862;SDS011;20158;51.436;-2.742;2023-03-14T12:25:15;0.80;;;0.45;;
33862;SDS011;20158;51.436;-2.742;2023-03-14T12:30:23;2.42;;;0.55;;
33862;SDS011;20158;51.436;-2.742;2023-03-14T12:36:20;1.30;;;0.63;;
33862;SDS011;20158;51.436;-2.742;2023-03-14T12:41:36;1.20;;;0.52;;
33862;SDS011;20158;51.436;-2.742;2023-03-14T12:46:58;1.67;;;0.52;;
33862;SDS011;20158;51.436;-2.742;2023-03-14T12:49:29;1.27;;;0.55;;
33862;SDS011;20158;51.436;-2.742;2023-03-14T12:52:00;1.75;;;0.70;;
33862;SDS011;20158;51.436;-2.742;2023-03-14T12:57:42;1.45;;;0.80;;
33862;SDS011;20158;51.436;-2.742;2023-03-14T13:00:38;2.22;;;0.90;;
33862;SDS011;20158;51.436;-2.742;2023-03-14T13:03:17;1.65;;;0.65;;
33862;SDS011;20158;51.436;-2.742;2023-03-14T13:11:18;1.83;;;0.70;;
33862;SDS011;20158;51.436;-2.742;2023-03-14T13:13:46;2.28;;;0.70;;
33862;SDS011;20158;51.436;-2.742;2023-03-14T13:16:25;1.00;;;0.63;;
33862;SDS011;20158;51.436;-2.742;2023-03-14T13:19:01;2.58;;;0.68;;
33862;SDS011;20158;51.436;-2.742;2023-03-14T13:21:34;1.48;;;0.80;;
33862;SDS011;20158;51.436;-2.742;2023-03-14T13:24:02;2.17;;;0.80;;
33862;SDS011;20158;51.436;-2.742;2023-03-14T13:26:37;2.03;;;0.70;;
33862;SDS011;20158;51.436;-2.742;2023-03-14T13:29:25;1.95;;;0.80;;
33862;SDS011;20158;51.436;-2.742;2023-03-14T13:31:55;2.67;;;0.80;;
33862;SDS011;20158;51.436;-2.742;2023-03-14T13:34:28;2.63;;;0.70;;
33862;SDS011;20158;51.436;-2.742;2023-03-14T13:36:56;3.92;;;1.05;;
33862;SDS011;20158;51.436;-2.742;2023-03-14T13:39:23;3.83;;;1.90;;
33862;SDS011;20158;51.436;-2.742;2023-03-14T13:41:51;2.35;;;0.80;;
33862;SDS011;20158;51.436;-2.742;2023-03-14T13:46:59;2.40;;;1.05;;
33862;SDS011;20158;51.436;-2.742;2023-03-14T13:49:28;4.78;;;1.20;;
33862;SDS011;20158;51.436;-2.742;2023-03-14T13:51:57;3.38;;;1.38;;
33862;SDS011;20158;51.436;-2.742;2023-03-14T13:54:25;4.07;;;1.23;;
33862;SDS011;20158;51.436;-2.742;2023-03-14T13:57:02;7.05;;;2.28;;
33862;SDS011;20158;51.436;-2.742;2023-03-14T13:59:31;4.28;;;1.02;;
33862;SDS011;20158;51.436;-2.742;2023-03-14T14:02:20;5.25;;;1.70;;
33862;SDS011;20158;51.436;-2.742;2023-03-14T14:04:46;6.75;;;1.83;;
33862;SDS011;20158;51.436;-2.742;2023-03-14T14:07:18;4.28;;;1.30;;
33862;SDS011;20158;51.436;-2.742;2023-03-14T14:09:49;4.10;;;1.45;;
33862;SDS011;20158;51.436;-2.742;2023-03-14T14:12:30;2.85;;;1.13;;
33862;SDS011;20158;51.436;-2.742;2023-03-14T14:15:15;4.78;;;1.05;;
33862;SDS011;20158;51.436;-2.742;2023-03-14T14:17:54;2.53;;;1.25;;
33862;SDS011;20158;51.436;-2.742;2023-03-14T14:23:21;5.35;;;2.42;;
33862;SDS011;20158;51.436;-2.742;2023-03-14T14:25:56;5.85;;;1.85;;
33862;SDS011;20158;51.436;-2.742;2023-03-14T14:28:31;4.93;;;1.58;;
33862;SDS011;20158;51.436;-2.742;2023-03-14T14:33:37;4.97;;;1.33;;
33862;SDS011;20158;51.436;-2.742;2023-03-14T14:36:39;4.28;;;1.25;;
33862;SDS011;20158;51.436;-2.742;2023-03-14T14:39:11;5.05;;;2.00;;
33862;SDS011;20158;51.436;-2.742;2023-03-14T14:41:47;6.95;;;2.45;;
33862;SDS011;20158;51.436;-2.742;2023-03-14T14:44:36;8.23;;;1.73;;
33862;SDS011;20158;51.436;-2.742;2023-03-14T14:47:02;4.75;;;1.45;;
33862;SDS011;20158;51.436;-2.742;2023-03-14T14:49:30;7.60;;;2.15;;
33862;SDS011;20158;51.436;-2.742;2023-03-14T14:52:04;7.57;;;2.05;;
33862;SDS011;20158;51.436;-2.742;2023-03-14T14:54:43;5.05;;;1.88;;
33862;SDS011;20158;51.436;-2.742;2023-03-14T14:57:20;5.70;;;1.52;;
33862;SDS011;20158;51.436;-2.742;2023-03-14T15:00:03;5.50;;;2.30;;
33862;SDS011;20158;51.436;-2.742;2023-03-14T15:02:38;5.18;;;1.70;;
33862;SDS011;20158;51.436;-2.742;2023-03-14T15:07:38;4.85;;;1.20;;
33862;SDS011;20158;51.436;-2.742;2023-03-14T15:10:03;3.47;;;1.50;;
33862;SDS011;20158;51.436;-2.742;2023-03-14T15:12:34;6.53;;;1.30;;
33862;SDS011;20158;51.436;-2.742;2023-03-14T15:15:00;7.65;;;2.53;;
33862;SDS011;20158;51.436;-2.742;2023-03-14T15:17:26;7.90;;;2.47;;
33862;SDS011;20158;51.436;-2.742;2023-03-14T15:19:52;6.40;;;1.80;;
33862;SDS011;20158;51.436;-2.742;2023-03-14T15:22:23;5.07;;;1.67;;
33862;SDS011;20158;51.436;-2.742;2023-03-14T15:24:49;5.13;;;1.55;;
33862;SDS011;20158;51.436;-2.742;2023-03-14T15:27:16;7.43;;;1.98;;
33862;SDS011;20158;51.436;-2.742;2023-03-14T15:29:43;3.95;;;1.45;;
33862;SDS011;20158;51.436;-2.742;2023-03-14T15:32:11;7.13;;;1.33;;
33862;SDS011;20158;51.436;-2.742;2023-03-14T15:34:40;6.18;;;2.08;;
33862;SDS011;20158;51.436;-2.742;2023-03-14T15:37:14;7.20;;;2.28;;
33862;SDS011;20158;51.436;-2.742;2023-03-14T15:39:42;5.43;;;2.10;;
33862;SDS011;20158;51.436;-2.742;2023-03-14T15:42:08;9.50;;;2.30;;
33862;SDS011;20158;51.436;-2.742;2023-03-14T15:44:34;4.72;;;1.52;;
33862;SDS011;20158;51.436;-2.742;2023-03-14T15:47:01;7.20;;;2.50;;
33862;SDS011;20158;51.436;-2.742;2023-03-14T15:49:28;6.68;;;2.15;;
33862;SDS011;20158;51.436;-2.742;2023-03-14T15:51:55;5.13;;;1.58;;
33862;SDS011;20158;51.436;-2.742;2023-03-14T15:54:24;6.97;;;2.92;;
33862;SDS011;20158;51.436;-2.742;2023-03-14T15:56:57;4.25;;;1.52;;
33862;SDS011;20158;51.436;-2.742;2023-03-14T15:59:24;5.55;;;1.60;;
33862;SDS011;20158;51.436;-2.742;2023-03-14T16:01:52;5.63;;;2.10;;
33862;SDS011;20158;51.436;-2.742;2023-03-14T16:04:18;10.60;;;3.20;;
33862;SDS011;20158;51.436;-2.742;2023-03-14T16:06:45;10.70;;;2.58;;
33862;SDS011;20158;51.436;-2.742;2023-03-14T16:09:12;7.60;;;1.92;;
33862;SDS011;20158;51.436;-2.742;2023-03-14T16:11:38;6.60;;;1.90;;
33862;SDS011;20158;51.436;-2.742;2023-03-14T16:14:04;4.50;;;1.40;;